Time;durP1;ratioP1;P1;durP2;ratioP2;P2;SDS_P1;SDS_P2;PMS_P1;PMS_P2;Temp;Humidity;BMP_temperature;BMP_pressure;BME280_temperature;BME280_humidity;BME280_pressure;Samples;Min_cycle;Max_cycle;Signal;HPM_P1;HPM_P2
2023/12/07 00:00:41;;;;;;;1.70;1.60;;;0.40;98.20;;;;;;5047009;28;20960;-78
2023/12/07 00:03:09;;;;;;;1.70;1.60;;;0.40;98.20;;;;;;5040574;28;21057;-77
2023/12/07 00:05:36;;;;;;;1.70;1.60;;;0.40;98.20;;;;;;5050470;28;20490;-77
2023/12/07 00:08:03;;;;;;;1.70;1.60;;;0.40;98.20;;;;;;5038511;28;20487;-77
2023/12/07 00:10:30;;;;;;;1.70;1.60;;;0.40;98.20;;;;;;5040423;28;20957;-78
2023/12/07 00:12:57;;;;;;;1.70;1.60;;;0.40;98.20;;;;;;5056816;28;20563;-78
2023/12/07 00:15:22;;;;;;;1.70;1.60;;;0.40;98.20;;;;;;5043671;28;20496;-77
2023/12/07 00:17:49;;;;;;;1.90;1.80;;;0.30;98.20;;;;;;5054537;28;20469;-77
2023/12/07 00:20:17;;;;;;;1.70;1.60;;;0.30;98.20;;;;;;5044751;28;20682;-76
2023/12/07 00:22:44;;;;;;;1.70;1.60;;;0.30;98.20;;;;;;5040723;28;20552;-77
2023/12/07 00:28:19;;;;;;;1.80;1.70;;;0.20;98.20;;;;;;5017221;28;20768;-78
2023/12/07 00:30:45;;;;;;;1.87;1.77;;;0.20;98.20;;;;;;5024588;28;20469;-78
2023/12/07 00:33:12;;;;;;;1.80;1.70;;;0.20;98.20;;;;;;5038826;28;20481;-77
2023/12/07 00:35:40;;;;;;;1.70;1.50;;;0.20;98.20;;;;;;5052193;28;20478;-78
2023/12/07 00:38:08;;;;;;;1.80;1.70;;;0.20;98.20;;;;;;5040011;28;20473;-78
2023/12/07 00:40:36;;;;;;;1.80;1.70;;;0.20;98.20;;;;;;5055443;28;20843;-78
2023/12/07 00:43:04;;;;;;;1.70;1.60;;;0.20;98.20;;;;;;5070450;28;20464;-77
2023/12/07 00:45:30;;;;;;;1.70;1.60;;;0.20;98.20;;;;;;5052809;28;20509;-78
2023/12/07 00:47:57;;;;;;;1.80;1.70;;;0.20;98.20;;;;;;5052091;28;20491;-77
2023/12/07 00:50:24;;;;;;;1.80;1.70;;;0.10;98.20;;;;;;5057338;28;20470;-77
2023/12/07 00:52:52;;;;;;;1.70;1.60;;;0.10;98.20;;;;;;5040993;28;20573;-78
2023/12/07 00:55:19;;;;;;;1.80;1.70;;;0.10;98.20;;;;;;5050429;28;20476;-77
2023/12/07 00:57:46;;;;;;;1.83;1.70;;;0.10;98.20;;;;;;5051476;28;20473;-77
2023/12/07 01:00:13;;;;;;;1.70;1.60;;;0.00;98.20;;;;;;5056701;28;20471;-78
2023/12/07 01:02:40;;;;;;;1.80;1.70;;;0.00;98.20;;;;;;5053554;28;20501;-77
2023/12/07 01:05:08;;;;;;;2.00;1.80;;;0.00;98.20;;;;;;5044099;28;20545;-78
2023/12/07 01:07:35;;;;;;;1.90;1.77;;;0.00;98.20;;;;;;5045900;28;20485;-77
2023/12/07 01:10:04;;;;;;;1.80;1.70;;;0.00;98.20;;;;;;5039406;28;20956;-78
2023/12/07 01:12:31;;;;;;;2.10;1.90;;;0.00;98.20;;;;;;5056872;28;20482;-78
2023/12/07 01:14:58;;;;;;;1.70;1.60;;;0.00;98.20;;;;;;5052764;28;20550;-78
2023/12/07 01:17:24;;;;;;;1.80;1.70;;;0.00;98.20;;;;;;5026164;28;21000;-78
2023/12/07 01:19:51;;;;;;;1.80;1.70;;;0.00;98.20;;;;;;5028899;28;20459;-77
2023/12/07 01:22:18;;;;;;;1.80;1.70;;;0.00;98.20;;;;;;5029413;28;20519;-78
2023/12/07 01:24:45;;;;;;;1.73;1.63;;;0.10;98.20;;;;;;5026555;28;20860;-78
2023/12/07 01:27:13;;;;;;;1.70;1.60;;;0.10;98.20;;;;;;5030590;28;20494;-77
2023/12/07 01:29:40;;;;;;;1.70;1.60;;;0.10;98.20;;;;;;5046857;28;20482;-77
2023/12/07 01:32:07;;;;;;;2.10;1.90;;;0.10;98.20;;;;;;5056785;28;20476;-77
2023/12/07 01:34:34;;;;;;;1.80;1.70;;;0.10;98.20;;;;;;5067362;28;20850;-78
2023/12/07 01:37:01;;;;;;;1.80;1.70;;;0.10;98.20;;;;;;5050162;28;20560;-77
2023/12/07 01:39:28;;;;;;;1.80;1.70;;;0.10;98.20;;;;;;5045420;28;20458;-77
2023/12/07 01:41:54;;;;;;;1.80;1.70;;;0.10;98.20;;;;;;5049066;28;20853;-77
2023/12/07 01:44:23;;;;;;;2.00;1.80;;;0.10;98.20;;;;;;5064919;28;20845;-78
2023/12/07 01:46:49;;;;;;;1.70;1.50;;;0.10;98.20;;;;;;5047301;28;20492;-77
2023/12/07 01:49:16;;;;;;;1.80;1.70;;;0.10;98.20;;;;;;5059627;28;20491;-77
2023/12/07 01:51:43;;;;;;;1.77;1.67;;;0.10;98.20;;;;;;5041555;28;20525;-78
2023/12/07 01:54:10;;;;;;;1.70;1.50;;;0.10;98.20;;;;;;5055518;28;20693;-77
2023/12/07 01:56:37;;;;;;;2.00;1.80;;;0.10;98.20;;;;;;5045685;28;20562;-77
2023/12/07 01:59:04;;;;;;;1.70;1.60;;;0.00;98.20;;;;;;5061115;28;20454;-77
2023/12/07 02:01:32;;;;;;;1.70;1.60;;;0.00;98.20;;;;;;5060171;28;20534;-77
2023/12/07 02:03:59;;;;;;;1.70;1.57;;;0.00;98.20;;;;;;5078814;28;20469;-77
2023/12/07 02:06:26;;;;;;;1.70;1.60;;;0.00;98.20;;;;;;5045151;28;20489;-76
2023/12/07 02:08:53;;;;;;;2.00;1.80;;;0.00;98.20;;;;;;5060411;28;20874;-77
2023/12/07 02:11:20;;;;;;;1.80;1.70;;;0.10;98.20;;;;;;5052311;28;20477;-77
2023/12/07 02:13:48;;;;;;;1.80;1.70;;;0.10;98.20;;;;;;5078924;28;20533;-77
2023/12/07 02:16:30;;;;;;;1.80;1.70;;;0.10;98.20;;;;;;5053198;28;20489;-77
2023/12/07 02:19:03;;;;;;;1.70;1.60;;;0.10;98.20;;;;;;5067265;28;20458;-77
2023/12/07 02:21:35;;;;;;;1.80;1.70;;;0.10;98.20;;;;;;5049170;28;20495;-77
2023/12/07 02:24:03;;;;;;;1.80;1.70;;;0.10;98.20;;;;;;5075434;28;20461;-77
2023/12/07 02:26:54;;;;;;;1.80;1.70;;;0.10;98.20;;;;;;5046507;28;20957;-77
2023/12/07 02:29:21;;;;;;;1.80;1.70;;;0.10;98.20;;;;;;5052520;28;20564;-77
2023/12/07 02:31:47;;;;;;;1.80;1.70;;;0.10;98.20;;;;;;5053677;28;20483;-77
2023/12/07 02:34:14;;;;;;;1.80;1.70;;;0.10;98.20;;;;;;5058022;28;20835;-77
2023/12/07 02:36:44;;;;;;;1.70;1.60;;;0.10;98.20;;;;;;5042819;28;20481;-77
2023/12/07 02:39:12;;;;;;;1.70;1.60;;;0.10;98.20;;;;;;5060612;28;20458;-77
2023/12/07 02:41:42;;;;;;;1.70;1.60;;;0.10;98.20;;;;;;5059295;28;20472;-76
2023/12/07 02:44:12;;;;;;;1.80;1.70;;;0.10;98.20;;;;;;5075040;28;20554;-77
2023/12/07 02:46:39;;;;;;;1.70;1.60;;;0.10;98.20;;;;;;5042268;28;20569;-77
2023/12/07 02:49:06;;;;;;;1.70;1.60;;;0.10;98.20;;;;;;5051422;28;20494;-78
2023/12/07 02:51:33;;;;;;;1.70;1.60;;;0.20;98.20;;;;;;5045441;28;20494;-78
2023/12/07 02:53:59;;;;;;;1.70;1.60;;;0.20;98.20;;;;;;5054438;28;20462;-78
2023/12/07 02:56:26;;;;;;;1.70;1.60;;;0.30;98.20;;;;;;5046549;28;20866;-78
2023/12/07 02:58:54;;;;;;;1.70;1.50;;;0.30;98.20;;;;;;5051395;28;20651;-78
2023/12/07 03:01:21;;;;;;;1.90;1.80;;;0.40;98.20;;;;;;5040249;28;20474;-79
2023/12/07 03:03:48;;;;;;;1.70;1.60;;;0.40;98.20;;;;;;5048728;28;21023;-78
2023/12/07 03:06:16;;;;;;;1.70;1.50;;;0.50;98.20;;;;;;5044381;28;20867;-78
2023/12/07 03:08:42;;;;;;;1.70;1.60;;;0.50;98.20;;;;;;5065835;28;20494;-78
2023/12/07 03:11:09;;;;;;;1.70;1.60;;;0.60;98.20;;;;;;5044053;28;20470;-77
2023/12/07 03:13:36;;;;;;;1.67;1.50;;;0.70;98.20;;;;;;5062255;28;20476;-78
2023/12/07 03:16:09;;;;;;;1.70;1.57;;;0.70;98.20;;;;;;5045464;28;20486;-78
2023/12/07 03:18:36;;;;;;;1.80;1.70;;;0.80;98.20;;;;;;5057505;28;21022;-78
2023/12/07 03:21:03;;;;;;;1.70;1.60;;;0.90;98.20;;;;;;5041703;28;20462;-79
2023/12/07 03:23:30;;;;;;;1.80;1.70;;;0.90;98.20;;;;;;5048027;28;20462;-78
2023/12/07 03:25:57;;;;;;;1.70;1.60;;;1.00;98.20;;;;;;5042799;28;20996;-79
2023/12/07 03:28:23;;;;;;;1.70;1.50;;;1.00;98.20;;;;;;5058207;28;20495;-79
2023/12/07 03:30:50;;;;;;;1.70;1.50;;;1.10;98.20;;;;;;5042142;28;20477;-79
2023/12/07 03:33:18;;;;;;;1.70;1.50;;;1.10;98.20;;;;;;5058290;28;20466;-79
2023/12/07 03:35:46;;;;;;;1.70;1.50;;;1.20;98.20;;;;;;5049473;28;20482;-79
2023/12/07 03:38:13;;;;;;;1.80;1.70;;;1.20;98.20;;;;;;5037383;28;21005;-79
2023/12/07 03:40:39;;;;;;;1.70;1.60;;;1.30;98.20;;;;;;5046491;28;20766;-79
2023/12/07 03:43:06;;;;;;;1.70;1.50;;;1.30;98.20;;;;;;5035860;28;20484;-79
2023/12/07 03:45:33;;;;;;;1.70;1.50;;;1.30;98.20;;;;;;5030322;28;20901;-79
2023/12/07 03:48:00;;;;;;;1.67;1.50;;;1.40;98.20;;;;;;5033382;28;21102;-80
2023/12/07 03:50:28;;;;;;;1.67;1.43;;;1.40;98.20;;;;;;5027940;28;21003;-80
2023/12/07 03:52:55;;;;;;;4.83;4.53;;;1.40;98.20;;;;;;5040668;28;20485;-80
2023/12/07 03:55:22;;;;;;;1.70;1.50;;;1.50;98.20;;;;;;5033624;28;20467;-80
2023/12/07 03:57:48;;;;;;;1.67;1.50;;;1.50;98.20;;;;;;5052752;28;21007;-80
2023/12/07 04:00:16;;;;;;;1.70;1.50;;;1.50;98.20;;;;;;5051020;28;20497;-80
2023/12/07 04:02:42;;;;;;;1.70;1.50;;;1.50;98.20;;;;;;5032045;28;20537;-81
2023/12/07 04:05:09;;;;;;;1.67;1.50;;;1.60;98.20;;;;;;5052684;28;20490;-81
2023/12/07 04:07:37;;;;;;;1.70;1.50;;;1.60;98.20;;;;;;5055258;28;20477;-82
2023/12/07 04:10:06;;;;;;;1.70;1.50;;;1.60;98.20;;;;;;5051204;28;20486;-82
2023/12/07 04:12:33;;;;;;;1.70;1.50;;;1.60;98.20;;;;;;5040375;28;20474;-84
2023/12/07 04:15:00;;;;;;;1.70;1.50;;;1.70;98.20;;;;;;5057110;28;20477;-82
2023/12/07 04:17:30;;;;;;;1.70;1.60;;;1.70;98.20;;;;;;5065162;28;20489;-84
2023/12/07 04:19:57;;;;;;;1.70;1.40;;;1.70;98.20;;;;;;5061508;28;20471;-84
2023/12/07 04:22:28;;;;;;;1.70;1.40;;;1.70;98.20;;;;;;5063483;28;20620;-85
2023/12/07 04:25:05;;;;;;;1.70;1.57;;;1.80;98.20;;;;;;5057230;28;20471;-85
2023/12/07 04:45:47;;;;;;;1.70;1.60;;;2.00;98.20;;;;;;6070442;22;20638;-83
2023/12/07 04:48:14;;;;;;;1.70;1.50;;;2.00;98.20;;;;;;4991188;28;20483;-83
2023/12/07 04:50:41;;;;;;;1.67;1.40;;;2.10;98.20;;;;;;5001774;28;20484;-84
2023/12/07 04:53:08;;;;;;;1.70;1.40;;;2.10;98.20;;;;;;4986727;28;20859;-83
2023/12/07 04:55:35;;;;;;;5.97;5.47;;;2.10;98.20;;;;;;5007632;28;20970;-82
2023/12/07 04:58:02;;;;;;;1.70;1.60;;;2.20;98.20;;;;;;4987942;28;20512;-82
2023/12/07 05:00:29;;;;;;;1.70;1.50;;;2.20;98.20;;;;;;4980767;28;20807;-81
2023/12/07 05:02:57;;;;;;;1.63;1.47;;;2.20;98.20;;;;;;4987212;28;20567;-80
2023/12/07 05:05:24;;;;;;;1.70;1.50;;;2.20;98.20;;;;;;4984673;28;20859;-79
2023/12/07 05:07:51;;;;;;;1.70;1.50;;;2.30;98.20;;;;;;4988329;28;20509;-77
2023/12/07 05:10:17;;;;;;;1.70;1.50;;;2.30;98.20;;;;;;4988123;28;20511;-81
2023/12/07 05:12:44;;;;;;;1.70;1.60;;;2.30;98.20;;;;;;4974630;28;20482;-81
2023/12/07 05:15:11;;;;;;;1.70;1.50;;;2.30;98.20;;;;;;4988410;28;20472;-81
2023/12/07 05:17:38;;;;;;;1.67;1.40;;;2.40;98.20;;;;;;5018426;28;20921;-78
2023/12/07 05:20:07;;;;;;;1.60;1.40;;;2.40;98.20;;;;;;5010465;28;20975;-80
2023/12/07 05:22:34;;;;;;;1.70;1.50;;;2.40;98.20;;;;;;5023615;28;20924;-80
2023/12/07 05:25:01;;;;;;;1.70;1.50;;;2.40;98.20;;;;;;5012199;28;20838;-81
2023/12/07 05:27:28;;;;;;;1.70;1.60;;;2.40;98.20;;;;;;5022392;28;21025;-78
2023/12/07 05:29:54;;;;;;;1.60;1.40;;;2.40;98.20;;;;;;5013085;28;20506;-79
2023/12/07 05:32:21;;;;;;;1.60;1.40;;;2.40;98.20;;;;;;4998191;28;20507;-80
2023/12/07 05:34:48;;;;;;;1.63;1.50;;;2.50;98.20;;;;;;4992386;28;20974;-79
2023/12/07 05:37:16;;;;;;;1.70;1.40;;;2.50;98.20;;;;;;4990663;28;20851;-78
2023/12/07 05:39:43;;;;;;;1.70;1.40;;;2.50;98.20;;;;;;4993805;28;20457;-77
2023/12/07 05:42:10;;;;;;;2.33;2.13;;;2.40;98.20;;;;;;4979485;28;20558;-78
2023/12/07 05:44:37;;;;;;;1.67;1.40;;;2.50;98.20;;;;;;4987557;28;20773;-80
2023/12/07 05:47:04;;;;;;;1.70;1.50;;;2.40;98.20;;;;;;4977022;28;20485;-77
2023/12/07 05:49:32;;;;;;;1.70;1.60;;;2.40;98.20;;;;;;4989700;28;20485;-79
2023/12/07 05:51:59;;;;;;;1.63;1.40;;;2.40;98.20;;;;;;4989058;28;20487;-79
2023/12/07 05:54:27;;;;;;;1.70;1.40;;;2.50;98.20;;;;;;4996865;28;20472;-79
2023/12/07 05:56:53;;;;;;;1.70;1.47;;;2.40;98.20;;;;;;4981614;28;20488;-78
2023/12/07 05:59:20;;;;;;;1.60;1.40;;;2.40;98.20;;;;;;4997509;28;20461;-80
2023/12/07 06:01:47;;;;;;;1.70;1.60;;;2.40;98.20;;;;;;4978115;28;20492;-79
2023/12/07 06:04:16;;;;;;;1.67;1.47;;;2.40;98.20;;;;;;4987730;28;20490;-80
2023/12/07 06:06:43;;;;;;;1.60;1.50;;;2.40;98.20;;;;;;4982893;28;20483;-80
2023/12/07 06:09:11;;;;;;;1.70;1.40;;;2.40;98.20;;;;;;4996904;28;21240;-79
2023/12/07 06:11:40;;;;;;;1.67;1.50;;;2.40;98.20;;;;;;4979462;28;21002;-79
2023/12/07 06:14:07;;;;;;;1.70;1.50;;;2.40;98.20;;;;;;4995339;28;20473;-80
2023/12/07 06:16:35;;;;;;;1.70;1.60;;;2.40;98.20;;;;;;4974171;28;20519;-76
2023/12/07 06:19:02;;;;;;;1.67;1.50;;;2.40;98.20;;;;;;4972428;28;20477;-78
2023/12/07 06:21:29;;;;;;;1.70;1.50;;;2.30;98.20;;;;;;4967929;28;20478;-79
2023/12/07 06:23:56;;;;;;;1.70;1.57;;;2.30;98.20;;;;;;5004545;28;20464;-78
2023/12/07 06:26:23;;;;;;;2.03;1.83;;;2.30;98.20;;;;;;4984361;28;20957;-78
2023/12/07 06:28:51;;;;;;;1.77;1.67;;;2.30;98.20;;;;;;5004440;28;20471;-78
2023/12/07 06:31:21;;;;;;;6.27;5.83;;;2.30;98.20;;;;;;4982759;28;20996;-78
2023/12/07 06:33:48;;;;;;;1.60;1.47;;;2.20;98.20;;;;;;5006514;28;20474;-79
2023/12/07 06:36:20;;;;;;;1.70;1.50;;;2.20;98.20;;;;;;4985151;28;20485;-80
2023/12/07 06:38:47;;;;;;;1.67;1.50;;;2.20;98.20;;;;;;5023024;28;20469;-79
2023/12/07 06:41:13;;;;;;;1.63;1.40;;;2.20;98.20;;;;;;5010219;28;20563;-78
2023/12/07 06:43:40;;;;;;;1.70;1.50;;;2.10;98.20;;;;;;5031242;28;20464;-80
2023/12/07 06:46:08;;;;;;;1.63;1.50;;;2.10;98.20;;;;;;4996602;28;20483;-80
2023/12/07 06:48:36;;;;;;;1.70;1.50;;;2.10;98.20;;;;;;5034055;28;20468;-79
2023/12/07 06:51:03;;;;;;;1.60;1.40;;;2.10;98.20;;;;;;5001730;28;20491;-80
2023/12/07 06:53:31;;;;;;;1.90;1.50;;;2.10;98.20;;;;;;5001647;28;21184;-77
2023/12/07 06:55:58;;;;;;;1.70;1.60;;;2.20;98.20;;;;;;4979604;28;20491;-77
2023/12/07 06:58:26;;;;;;;1.63;1.40;;;2.20;98.20;;;;;;5018866;28;20494;-78
2023/12/07 07:00:53;;;;;;;3.97;3.00;;;2.20;98.20;;;;;;4993824;28;20673;-79
2023/12/07 07:03:22;;;;;;;1.70;1.40;;;2.20;98.20;;;;;;5020470;28;20559;-80
2023/12/07 07:05:49;;;;;;;1.70;1.60;;;2.20;98.20;;;;;;4997041;28;20961;-78
2023/12/07 07:08:17;;;;;;;1.67;1.40;;;2.20;98.20;;;;;;5017231;28;20537;-77
2023/12/07 07:10:46;;;;;;;1.70;1.50;;;2.20;98.20;;;;;;5002296;28;20488;-78
2023/12/07 07:13:14;;;;;;;1.70;1.50;;;2.20;98.20;;;;;;4998288;28;20588;-78
2023/12/07 07:15:43;;;;;;;1.60;1.50;;;2.20;98.20;;;;;;5006274;28;20518;-79
2023/12/07 07:18:10;;;;;;;1.70;1.50;;;2.20;98.20;;;;;;5013306;28;20484;-79
2023/12/07 07:20:39;;;;;;;1.67;1.40;;;2.20;98.20;;;;;;5007575;28;20813;-79
2023/12/07 07:23:08;;;;;;;1.70;1.60;;;2.20;98.20;;;;;;5013188;28;20860;-78
2023/12/07 07:25:35;;;;;;;1.63;1.40;;;2.20;98.20;;;;;;5013068;28;20500;-78
2023/12/07 07:28:03;;;;;;;1.70;1.50;;;2.20;98.20;;;;;;4996798;28;20514;-80
2023/12/07 07:30:30;;;;;;;1.70;1.50;;;2.20;98.20;;;;;;4988565;28;20503;-76
2023/12/07 07:32:57;;;;;;;1.70;1.60;;;2.10;98.20;;;;;;5016135;28;20479;-80
2023/12/07 07:35:27;;;;;;;1.70;1.50;;;2.10;98.20;;;;;;5012069;28;20522;-78
2023/12/07 07:37:55;;;;;;;2.50;2.30;;;2.10;98.20;;;;;;5027551;28;20482;-80
2023/12/07 07:40:24;;;;;;;1.60;1.50;;;2.10;98.20;;;;;;5011386;28;20476;-82
2023/12/07 07:42:51;;;;;;;1.63;1.40;;;2.10;98.20;;;;;;5028482;28;20482;-80
2023/12/07 07:45:18;;;;;;;1.70;1.60;;;2.10;98.20;;;;;;5013683;28;20491;-82
2023/12/07 07:47:46;;;;;;;1.70;1.50;;;2.00;98.20;;;;;;5033643;28;20494;-83
2023/12/07 07:50:13;;;;;;;1.70;1.50;;;2.00;98.20;;;;;;5015678;28;20492;-82
2023/12/07 07:52:41;;;;;;;1.70;1.50;;;2.00;98.20;;;;;;5020829;28;21286;-82
2023/12/07 07:55:11;;;;;;;1.70;1.50;;;2.00;98.20;;;;;;5014279;28;20630;-80
2023/12/07 07:57:38;;;;;;;1.70;1.60;;;2.00;98.20;;;;;;5033159;28;20513;-80
2023/12/07 08:00:08;;;;;;;1.60;1.40;;;2.00;98.20;;;;;;5017084;28;21035;-80
2023/12/07 08:02:36;;;;;;;1.63;1.40;;;2.00;98.20;;;;;;5016367;28;20496;-80
2023/12/07 08:05:03;;;;;;;1.70;1.50;;;2.00;98.20;;;;;;5011907;28;20471;-81
2023/12/07 08:07:30;;;;;;;1.63;1.40;;;2.00;98.20;;;;;;5023989;28;20486;-79
2023/12/07 08:09:57;;;;;;;1.67;1.40;;;2.00;98.20;;;;;;5011498;28;20490;-81
2023/12/07 08:12:26;;;;;;;1.70;1.40;;;2.00;98.20;;;;;;5024317;28;20528;-80
2023/12/07 08:14:53;;;;;;;1.63;1.40;;;2.00;98.20;;;;;;5017028;28;20471;-81
2023/12/07 08:17:21;;;;;;;1.63;1.40;;;2.00;98.20;;;;;;5026043;28;21042;-79
2023/12/07 08:19:48;;;;;;;1.70;1.50;;;2.00;98.20;;;;;;5018757;28;20471;-79
2023/12/07 08:22:17;;;;;;;1.80;1.70;;;2.00;98.20;;;;;;5026121;28;20489;-79
2023/12/07 08:24:44;;;;;;;2.83;2.63;;;2.00;98.20;;;;;;5021622;28;20499;-80
2023/12/07 08:27:11;;;;;;;1.60;1.40;;;2.00;98.20;;;;;;5021907;28;21101;-80
2023/12/07 08:29:40;;;;;;;1.60;1.40;;;2.10;98.20;;;;;;5018965;28;20967;-80
2023/12/07 08:32:07;;;;;;;1.70;1.50;;;2.10;98.20;;;;;;5022433;28;21026;-80
2023/12/07 08:34:34;;;;;;;1.63;1.40;;;2.20;98.20;;;;;;5020473;28;20562;-80
2023/12/07 08:37:04;;;;;;;1.70;1.50;;;2.30;98.20;;;;;;5021887;28;20665;-79
2023/12/07 08:39:30;;;;;;;1.63;1.40;;;2.30;98.20;;;;;;5019407;28;20488;-81
2023/12/07 08:41:57;;;;;;;1.67;1.40;;;2.40;98.20;;;;;;5018342;28;20485;-80
2023/12/07 08:44:24;;;;;;;1.70;1.50;;;2.50;98.20;;;;;;5024123;28;20467;-80
2023/12/07 08:46:52;;;;;;;1.63;1.40;;;2.50;98.20;;;;;;5012653;28;20660;-79
2023/12/07 08:49:19;;;;;;;1.63;1.40;;;2.50;98.20;;;;;;5023024;28;20555;-79
2023/12/07 08:51:46;;;;;;;1.63;1.50;;;2.60;98.20;;;;;;5014576;28;20569;-79
2023/12/07 08:54:12;;;;;;;1.77;1.67;;;2.60;98.20;;;;;;5025291;28;20891;-80
2023/12/07 08:56:39;;;;;;;1.63;1.40;;;2.60;98.20;;;;;;5010637;28;20486;-80
2023/12/07 08:59:05;;;;;;;1.70;1.40;;;2.50;98.20;;;;;;5027724;28;20539;-80
2023/12/07 09:01:33;;;;;;;1.70;1.50;;;2.50;98.20;;;;;;5010213;28;20594;-80
2023/12/07 09:04:01;;;;;;;1.67;1.50;;;2.50;98.20;;;;;;5030289;28;20475;-83
2023/12/07 09:06:28;;;;;;;5.37;4.90;;;2.50;98.20;;;;;;5011800;28;20486;-81
2023/12/07 09:08:55;;;;;;;1.70;1.40;;;2.50;98.20;;;;;;5033724;28;21014;-85
2023/12/07 09:11:21;;;;;;;1.70;1.60;;;2.60;98.20;;;;;;5003671;28;20495;-82
2023/12/07 09:13:48;;;;;;;1.70;1.50;;;2.60;98.20;;;;;;5001741;28;20479;-84
2023/12/07 09:16:15;;;;;;;1.70;1.50;;;2.60;98.20;;;;;;4988237;28;20482;-79
2023/12/07 09:18:42;;;;;;;1.70;1.40;;;2.60;98.20;;;;;;5021978;28;20465;-82
2023/12/07 09:21:10;;;;;;;1.70;1.47;;;2.60;98.20;;;;;;5007877;28;20483;-82
2023/12/07 09:23:37;;;;;;;1.63;1.50;;;2.60;98.20;;;;;;5019741;28;20460;-82
2023/12/07 09:26:04;;;;;;;1.67;1.40;;;2.60;98.20;;;;;;5014300;28;21002;-82
2023/12/07 09:28:32;;;;;;;1.70;1.50;;;2.60;98.20;;;;;;5034613;28;20472;-78
2023/12/07 09:30:59;;;;;;;1.60;1.40;;;2.60;98.20;;;;;;5002372;28;20523;-80
2023/12/07 09:33:26;;;;;;;2.23;2.03;;;2.60;98.20;;;;;;5034479;28;20479;-79
2023/12/07 09:35:53;;;;;;;1.63;1.40;;;2.60;98.20;;;;;;4997644;28;20492;-79
2023/12/07 09:38:21;;;;;;;1.70;1.43;;;2.60;98.20;;;;;;5034392;28;20478;-79
2023/12/07 09:40:53;;;;;;;1.63;1.40;;;2.60;98.20;;;;;;4999276;28;20711;-80
2023/12/07 09:43:20;;;;;;;4.47;4.07;;;2.70;98.20;;;;;;5033518;28;20455;-80
2023/12/07 09:45:48;;;;;;;2.93;2.67;;;2.70;98.20;;;;;;5009297;28;20464;-79
2023/12/07 09:48:17;;;;;;;1.70;1.50;;;2.70;98.20;;;;;;5037977;28;20492;-80
2023/12/07 09:50:44;;;;;;;1.70;1.50;;;2.70;98.20;;;;;;5008065;28;20490;-80
2023/12/07 09:53:11;;;;;;;3.00;2.80;;;2.70;98.20;;;;;;5027542;28;21042;-80
2023/12/07 09:55:39;;;;;;;1.60;1.40;;;2.70;98.20;;;;;;5005587;28;20990;-80
2023/12/07 09:58:08;;;;;;;1.67;1.40;;;2.70;98.20;;;;;;5024821;28;20688;-79
2023/12/07 10:00:35;;;;;;;1.70;1.40;;;2.70;98.20;;;;;;5006157;28;20468;-79
2023/12/07 10:03:02;;;;;;;1.67;1.40;;;2.80;98.20;;;;;;5027196;28;20482;-80
2023/12/07 10:05:29;;;;;;;1.67;1.37;;;2.80;98.20;;;;;;5008430;28;20970;-79
2023/12/07 10:07:56;;;;;;;1.70;1.47;;;2.80;98.20;;;;;;4993687;28;20551;-78
2023/12/07 10:10:23;;;;;;;1.70;1.53;;;2.90;98.20;;;;;;4984658;28;20660;-81
2023/12/07 10:12:53;;;;;;;1.67;1.40;;;2.90;98.20;;;;;;4972853;28;20512;-78
2023/12/07 10:15:21;;;;;;;4.77;4.37;;;3.00;98.20;;;;;;4984437;28;20461;-79
2023/12/07 10:17:50;;;;;;;1.70;1.40;;;3.00;98.20;;;;;;4990782;28;20544;-78
2023/12/07 10:20:18;;;;;;;1.70;1.50;;;3.00;98.20;;;;;;4989854;28;20471;-78
2023/12/07 10:22:46;;;;;;;1.67;1.40;;;3.10;98.20;;;;;;4979367;28;20485;-77
2023/12/07 10:25:13;;;;;;;1.60;1.30;;;3.10;98.20;;;;;;4988828;28;20484;-78
2023/12/07 10:27:42;;;;;;;1.70;1.40;;;3.20;98.20;;;;;;4989815;28;21113;-78
2023/12/07 10:30:12;;;;;;;2.77;2.57;;;3.30;98.20;;;;;;4989267;28;20465;-77
2023/12/07 10:32:40;;;;;;;1.63;1.40;;;3.30;98.20;;;;;;4993662;28;20542;-78
2023/12/07 10:35:10;;;;;;;1.67;1.40;;;3.30;98.20;;;;;;4983750;28;20475;-79
2023/12/07 10:37:37;;;;;;;1.70;1.40;;;3.30;98.20;;;;;;4976063;28;20495;-79
2023/12/07 10:40:07;;;;;;;1.70;1.40;;;3.30;98.20;;;;;;4991027;28;20492;-78
2023/12/07 10:42:36;;;;;;;1.67;1.40;;;3.30;98.20;;;;;;4990644;28;20827;-78
2023/12/07 10:45:06;;;;;;;1.67;1.40;;;3.30;98.20;;;;;;4988960;28;20478;-79
2023/12/07 10:47:36;;;;;;;1.63;1.40;;;3.40;98.20;;;;;;4990408;28;20638;-78
2023/12/07 10:50:10;;;;;;;1.80;1.70;;;3.40;98.20;;;;;;4990517;28;20468;-79
2023/12/07 10:52:38;;;;;;;1.60;1.30;;;3.40;98.20;;;;;;4994416;28;20476;-78
2023/12/07 10:55:08;;;;;;;1.70;1.40;;;3.40;98.20;;;;;;4990174;28;20465;-78
2023/12/07 10:57:37;;;;;;;1.60;1.40;;;3.40;98.20;;;;;;4992518;28;20488;-78
2023/12/07 11:00:05;;;;;;;1.70;1.50;;;3.40;98.20;;;;;;4991345;28;20748;-78
2023/12/07 11:02:36;;;;;;;1.63;1.30;;;3.40;98.20;;;;;;4992724;28;20479;-79
2023/12/07 11:05:03;;;;;;;1.70;1.60;;;3.40;98.20;;;;;;4989673;28;20564;-79
2023/12/07 11:07:41;;;;;;;1.60;1.30;;;3.40;98.20;;;;;;4989135;28;20492;-78
2023/12/07 11:10:15;;;;;;;1.70;1.40;;;3.50;98.20;;;;;;4990240;28;20472;-79
2023/12/07 11:12:50;;;;;;;1.60;1.40;;;3.50;98.20;;;;;;4988631;28;20496;-80
2023/12/07 11:15:18;;;;;;;1.70;1.50;;;3.50;98.20;;;;;;4989129;28;20620;-79
2023/12/07 11:17:54;;;;;;;1.70;1.57;;;3.50;98.20;;;;;;4991978;28;20498;-79
2023/12/07 11:20:22;;;;;;;1.70;1.40;;;3.50;98.20;;;;;;4987823;28;20471;-79
2023/12/07 11:22:50;;;;;;;1.60;1.40;;;3.50;98.20;;;;;;4992898;28;20476;-81
2023/12/07 11:25:17;;;;;;;1.67;1.40;;;3.50;98.20;;;;;;4985703;28;20465;-79
2023/12/07 11:27:47;;;;;;;1.70;1.50;;;3.40;98.20;;;;;;4992674;28;20486;-80
2023/12/07 11:30:16;;;;;;;1.70;1.40;;;3.40;98.20;;;;;;4992120;28;20461;-82
2023/12/07 11:32:44;;;;;;;1.70;1.50;;;3.40;98.20;;;;;;4993581;28;20488;-80
2023/12/07 11:35:15;;;;;;;1.60;1.40;;;3.40;98.20;;;;;;4989775;28;20998;-80
2023/12/07 11:38:01;;;;;;;1.87;1.73;;;3.40;98.20;;;;;;5023321;28;20569;-82
2023/12/07 11:40:28;;;;;;;1.63;1.30;;;3.40;98.20;;;;;;5011325;28;20551;-81
2023/12/07 11:42:55;;;;;;;1.70;1.40;;;3.40;98.20;;;;;;5028498;28;20476;-80
2023/12/07 11:45:37;;;;;;;1.60;1.40;;;3.50;98.20;;;;;;5010614;28;20943;-82
2023/12/07 11:48:15;;;;;;;1.70;1.50;;;3.50;98.20;;;;;;5022357;28;20486;-82
2023/12/07 11:50:56;;;;;;;1.63;1.40;;;3.50;98.20;;;;;;5009616;28;20464;-80
2023/12/07 11:53:24;;;;;;;1.70;1.40;;;3.50;98.20;;;;;;4994792;28;20480;-78
2023/12/07 11:55:51;;;;;;;1.63;1.40;;;3.50;98.20;;;;;;4995870;28;20480;-82
2023/12/07 11:58:18;;;;;;;1.70;1.50;;;3.60;98.20;;;;;;5022117;28;20482;-81
2023/12/07 12:00:46;;;;;;;1.70;1.50;;;3.50;98.20;;;;;;5007740;28;20478;-82
2023/12/07 12:03:13;;;;;;;1.67;1.30;;;3.60;98.20;;;;;;4996692;28;20873;-81
2023/12/07 12:05:41;;;;;;;1.63;1.40;;;3.60;98.20;;;;;;5005732;28;20473;-81
2023/12/07 12:08:10;;;;;;;1.63;1.40;;;3.60;98.20;;;;;;4998614;28;20567;-80
2023/12/07 12:10:38;;;;;;;1.60;1.30;;;3.60;98.20;;;;;;5006378;28;20469;-81
2023/12/07 12:13:05;;;;;;;1.70;1.50;;;3.60;98.20;;;;;;5010338;28;20483;-81
2023/12/07 12:15:32;;;;;;;4.67;2.57;;;3.50;98.20;;;;;;5003046;28;20551;-80
2023/12/07 12:18:00;;;;;;;1.63;1.40;;;3.60;98.20;;;;;;5009296;28;20535;-80
2023/12/07 12:20:27;;;;;;;1.60;1.40;;;3.60;98.20;;;;;;5007797;28;20755;-80
2023/12/07 12:22:54;;;;;;;1.60;1.30;;;3.70;98.20;;;;;;4996446;28;20488;-80
2023/12/07 12:25:25;;;;;;;1.70;1.50;;;3.70;98.20;;;;;;5009504;28;20472;-81
2023/12/07 12:27:53;;;;;;;1.80;1.70;;;3.80;98.20;;;;;;5002540;28;20518;-82
2023/12/07 12:30:20;;;;;;;1.67;1.30;;;3.80;98.20;;;;;;5007522;28;20468;-81
2023/12/07 12:32:48;;;;;;;1.70;1.40;;;3.90;98.20;;;;;;5012396;28;20487;-81
2023/12/07 12:35:15;;;;;;;1.63;1.40;;;3.90;98.20;;;;;;5008732;28;20463;-82
2023/12/07 12:37:43;;;;;;;2.90;2.70;;;4.00;98.20;;;;;;5014985;28;20491;-82
2023/12/07 12:40:15;;;;;;;1.63;1.40;;;4.10;98.20;;;;;;5013360;28;20467;-80
2023/12/07 12:42:44;;;;;;;2.60;2.40;;;4.20;98.20;;;;;;5011230;28;20721;-79
2023/12/07 12:45:12;;;;;;;1.70;1.30;;;4.40;98.20;;;;;;5009313;28;20478;-82
2023/12/07 12:47:39;;;;;;;1.60;1.30;;;4.60;98.20;;;;;;5022231;28;20487;-79
2023/12/07 12:50:07;;;;;;;1.63;1.30;;;4.80;98.20;;;;;;5014009;28;20588;-79
2023/12/07 12:52:35;;;;;;;1.70;1.40;;;4.90;98.20;;;;;;5024129;28;20492;-80
2023/12/07 12:55:02;;;;;;;1.67;1.40;;;5.00;98.20;;;;;;5008456;28;20472;-82
2023/12/07 12:57:29;;;;;;;1.83;1.60;;;5.10;98.20;;;;;;5025960;28;20475;-82
2023/12/07 12:59:57;;;;;;;1.63;1.30;;;5.10;98.20;;;;;;5014965;28;20475;-82
2023/12/07 13:02:24;;;;;;;1.60;1.30;;;5.20;98.20;;;;;;5016610;28;20481;-80
2023/12/07 13:04:51;;;;;;;1.70;1.60;;;5.20;98.20;;;;;;5010443;28;20689;-81
2023/12/07 13:07:18;;;;;;;1.63;1.30;;;5.20;98.20;;;;;;5022941;28;20500;-82
2023/12/07 13:09:44;;;;;;;1.63;1.30;;;5.20;98.20;;;;;;5015845;28;20466;-82
2023/12/07 13:12:11;;;;;;;1.77;1.57;;;5.20;98.20;;;;;;5015388;28;20650;-82
2023/12/07 13:14:39;;;;;;;1.70;1.30;;;5.20;98.20;;;;;;5014536;28;20551;-81
2023/12/07 13:17:08;;;;;;;1.60;1.30;;;5.20;98.20;;;;;;5015799;28;20577;-82
2023/12/07 13:19:35;;;;;;;1.60;1.30;;;5.10;98.20;;;;;;5015089;28;20467;-82
2023/12/07 13:22:03;;;;;;;1.60;1.30;;;5.10;98.20;;;;;;5017656;28;20546;-81